Latest Coastal Weather Observations for Truscott

IDW60701

Issued at 12:23 pm WST Friday 22 September 2017 (issued every 10 minutes, with the page automatically refreshed every 10 minutes)

About coastal observations | Map of coastal stations | Coastal observations for WA | Marine services | Other Formats
Station Details ID: 001020 Name: TRUSCOTT Lat: -14.09 Lon: 126.39 Height: 51.0 m
Data from the previous 72 hours. | See also: Recent months at Truscott
Date/Time
WST
Temp
°C
Wind Pressure Rain since
9am
mm
Weather Cloud Vis
km
Sea
Height
m
Swell
Dir  Spd
kts
Gust
kts
hPa Trend Height
m
Period
s
Dir
22/12:00pm 31.6 N 9 12 1011.9 - 0.0 - - 10 - - - -
22/11:30am 31.4 NNW 8 12 1012.2 - 0.0 - Partly cloudy 10 - - - -
22/11:00am 31.9 NNW 6 11 1012.6 - 0.0 - Partly cloudy 10 - - - -
22/10:30am 32.3 W 6 10 1012.9 - 0.0 - Cloudy 10 - - - -
22/10:00am 31.1 NW 5 9 1013.4 - 0.0 - Cloudy 10 - - - -
22/09:30am 29.9 NNW 6 8 1013.6 - 0.0 - Cloudy 10 - - - -
22/09:00am 29.1 WNW 7 9 1013.6 - 0.0 - Mostly cloudy 10 - - - -
22/08:30am 29.0 W 6 9 1013.5 - 0.0 - Partly cloudy 10 - - - -
22/08:00am 28.5 WSW 6 9 1013.4 - 0.0 - Partly cloudy 10 - - - -
22/07:30am 27.5 SW 5 7 1013.1 - 0.0 - Partly cloudy 10 - - - -
22/07:00am 26.1 ESE 2 4 1013.1 - 0.0 - Partly cloudy 10 - - - -
22/06:30am 24.5 SW 3 4 1012.7 - 0.0 - - 10 - - - -
22/06:00am 23.5 SSE 2 3 1012.5 - 0.0 - - 10 - - - -
22/05:30am 23.7 SSW 5 7 1011.9 - 0.0 - - 10 - - - -
22/05:00am 22.4 S 3 5 1011.9 - 0.0 - - 10 - - - -
22/04:30am 23.1 SSW 2 4 1011.6 - 0.0 - - 10 - - - -
22/04:00am 24.3 WSW 4 6 1011.3 - 0.0 - - 10 - - - -
22/03:30am 24.2 W 4 6 1011.0 - 0.0 - - 10 - - - -
22/03:00am 24.3 WSW 5 6 1010.8 - 0.0 - - 10 - - - -
22/02:30am 23.2 SW 2 4 1010.9 - 0.0 - - 10 - - - -
22/02:00am 23.6 W 2 3 1010.8 - 0.0 - - 10 - - - -
22/01:30am 24.3 WSW 4 5 1010.8 - 0.0 - - 10 - - - -
22/01:00am 24.5 WSW 5 7 1010.7 - 0.0 - - 10 - - - -
22/12:30am 24.5 WSW 3 4 1010.9 - 0.0 - - 10 - - - -
22/12:00am 24.2 W 4 7 1011.2 - 0.0 - - 10 - - - -
 
Date/Time
WST
Temp
°C
Wind Pressure Rain since
9am
mm
Weather Cloud Vis
km
Sea
Height
m
Swell
Dir  Spd
kts
Gust
kts
hPa Trend Height
m
Period
s
Dir
21/11:30pm 24.5 WSW 1 5 1011.4 - 0.0 - - 10 - - - -
21/11:00pm 24.8 WSW 3 5 1011.6 - 0.0 - - 10 - - - -
21/10:30pm 24.7 WNW 3 4 1011.7 - 0.0 - - 10 - - - -
21/10:00pm 24.4 NW 3 4 1011.8 - 0.0 - - 10 - - - -
21/09:30pm 25.0 WNW 3 4 1011.9 - 0.0 - - 10 - - - -
21/09:00pm 25.2 W 4 6 1011.6 - 0.0 - - 10 - - - -
21/08:30pm 25.3 NW 4 5 1011.4 - 0.0 - - 10 - - - -
21/08:00pm 25.6 WNW 3 5 1011.3 - 0.0 - - 10 - - - -
21/07:30pm 25.8 NW 4 6 1011.0 - 0.0 - - 10 - - - -
21/07:00pm 26.1 NNW 5 7 1010.7 - 0.0 - - 10 - - - -
21/06:30pm 26.2 NNW 5 6 1010.2 - 0.0 - - 10 - - - -
21/06:00pm 26.5 NNW 5 7 1009.9 - 0.0 - - 10 - - - -
21/05:30pm 26.9 NNW 6 8 1009.7 - 0.0 - - 10 - - - -
21/05:00pm 27.7 NNW 6 9 1009.1 - 0.0 - - 10 - - - -
21/04:30pm 28.2 NNW 8 10 1008.9 - 0.0 - - 10 - - - -
21/04:00pm 29.1 NW 7 12 1008.7 - 0.0 - - 10 - - - -
21/03:30pm 29.4 NW 9 13 1008.7 - 0.0 - - 10 - - - -
21/03:00pm 29.5 NW 10 14 1008.9 - 0.0 - - 10 - - - -
21/02:30pm 30.1 NNW 9 13 1009.1 - 0.0 - - 10 - - - -
21/02:00pm 30.1 N 10 15 1009.4 - 0.0 - - 10 - - - -
21/01:30pm 30.3 NNW 10 15 1009.5 - 0.0 - - 10 - - - -
21/01:00pm 29.9 N 11 16 1009.8 - 0.0 - - 10 - - - -
21/12:30pm 30.9 N 11 17 1010.0 - 0.0 - - 10 - - - -
21/12:00pm 31.0 N 11 17 1010.3 - 0.0 - - 10 - - - -
21/11:30am 31.3 N 11 17 1010.8 - 0.0 - - 10 - - - -
21/11:00am 32.4 N 10 17 1011.2 - 0.0 - - 10 - - - -
21/10:30am 34.4 N 4 6 1011.3 - 0.0 - - 10 - - - -
21/10:00am 33.7 NW 5 9 1011.7 - 0.0 - - 10 - - - -
21/09:30am 32.9 WSW 2 6 1012.1 - 0.0 - - 10 - - - -
21/09:00am 31.3 W 6 8 1012.6 - 0.0 - - 10 - - - -
21/08:30am 30.3 SW 5 8 1012.7 - 0.0 - - 10 - - - -
21/08:00am 29.3 SSW 7 10 1012.9 - 0.0 - - 10 - - - -
21/07:30am 27.9 SW 7 10 1012.9 - 0.0 - - 10 - - - -
21/07:00am 26.3 SW 6 7 1012.7 - 0.0 - - 10 - - - -
21/06:30am 24.6 SW 2 5 1012.6 - 0.0 - - 10 - - - -
21/06:00am 23.4 SSW 3 5 1012.3 - 0.0 - - 10 - - - -
21/05:30am 22.2 SSW 3 5 1012.0 - 0.0 - - 10 - - - -
21/05:00am 22.9 SSW 2 4 1011.8 - 0.0 - - 10 - - - -
21/04:30am 23.4 SW 5 8 1011.4 - 0.0 - - 10 - - - -
21/04:00am 23.4 SW 7 9 1011.3 - 0.0 - - 10 - - - -
21/03:30am 23.6 SW 6 9 1011.0 - 0.0 - - 10 - - - -
21/03:00am 23.9 SSW 6 8 1010.9 - 0.0 - - 10 - - - -
21/02:30am 23.7 SW 5 8 1010.7 - 0.0 - - 10 - - - -
21/02:00am 23.9 SW 8 11 1010.8 - 0.0 - - 10 - - - -
21/01:30am 24.2 SW 8 10 1011.0 - 0.0 - - 10 - - - -
21/01:00am 24.2 SW 7 10 1011.1 - 0.0 - - 10 - - - -
21/12:30am 24.1 SW 6 7 1011.3 - 0.0 - - 10 - - - -
21/12:00am 24.4 SW 6 7 1011.6 - 0.0 - - 10 - - - -
 
Date/Time
WST
Temp
°C
Wind Pressure Rain since
9am
mm
Weather Cloud Vis
km
Sea
Height
m
Swell
Dir  Spd
kts
Gust
kts
hPa Trend Height
m
Period
s
Dir
20/11:30pm 24.4 SW 5 7 1011.9 - 0.0 - - 10 - - - -
20/11:00pm 24.8 WSW 5 7 1011.9 - 0.0 - - 10 - - - -
20/10:30pm 24.8 WSW 5 7 1012.0 - 0.0 - - 10 - - - -
20/10:00pm 25.0 SW 4 5 1012.1 - 0.0 - - 10 - - - -
20/09:30pm 25.3 SW 5 6 1012.3 - 0.0 - - 10 - - - -
20/09:00pm 25.4 WSW 4 5 1012.3 - 0.0 - - 10 - - - -
20/08:30pm 25.2 WSW 3 4 1012.3 - 0.0 - - 10 - - - -
20/08:00pm 25.4 WSW 3 4 1012.1 - 0.0 - - 10 - - - -
20/07:30pm 25.2 CALM 0 0 1011.7 - 0.0 - - 10 - - - -
20/07:00pm 25.6 WNW 2 4 1011.4 - 0.0 - - 10 - - - -
20/06:30pm 26.1 WNW 4 5 1011.1 - 0.0 - - 10 - - - -
20/06:00pm 26.5 NNW 3 5 1010.8 - 0.0 - - 10 - - - -
20/05:30pm 27.1 NW 5 6 1010.5 - 0.0 - - 10 - - - -
20/05:00pm 28.1 NNW 6 8 1010.4 - 0.0 - - 10 - - - -
20/04:30pm 28.8 NW 7 10 1010.2 - 0.0 - - 10 - - - -
20/04:00pm 29.7 NNW 7 9 1010.0 - 0.0 - - 10 - - - -
20/03:30pm 29.9 NNW 9 13 1010.3 - 0.0 - - 10 - - - -
20/03:00pm 30.0 NNW 8 12 1010.4 - 0.0 - - 10 - - - -
20/02:30pm 30.2 NNW 9 13 1010.6 - 0.0 - - 10 - - - -
20/02:00pm 31.0 NW 9 12 1010.9 - 0.0 - - 10 - - - -
20/01:30pm 30.4 NW 8 12 1011.2 - 0.0 - - 10 - - - -
20/01:00pm 31.7 NNW 8 13 1011.5 - 0.0 - - 10 - - - -
20/12:30pm 31.2 NNW 8 13 1011.9 - 0.0 - - 10 - - - -
20/12:00pm 31.5 NNW 9 12 1012.5 - 0.0 - - 10 - - - -
20/11:30am 31.3 N 9 12 1012.8 - 0.0 - - 10 - - - -
20/11:00am 31.6 N 7 12 1013.0 - 0.0 - - 10 - - - -
20/10:30am 31.3 NNW 6 10 1013.3 - 0.0 - - 10 - - - -
20/10:00am 31.3 NNE 5 9 1013.6 - 0.0 - - 10 - - - -
20/09:30am 31.6 E 4 7 1014.0 - 0.0 - - 10 - - - -
20/09:00am 29.8 E 4 6 1014.4 - 0.0 - - 10 - - - -
20/08:30am 28.7 S 1 5 1014.5 - 0.0 - - 10 - - - -
20/08:00am 26.8 ENE 3 6 1014.3 - 0.0 - - 10 - - - -
20/07:30am 25.5 NW 2 4 1013.9 - 0.0 - - 10 - - - -
20/07:00am 24.1 ENE 4 9 1013.6 - 0.0 - - 10 - - - -
20/06:30am 22.8 SSW 4 7 1013.1 - 0.0 - - 10 - - - -
20/06:00am 21.9 SW 5 9 1012.8 - 0.0 - - 10 - - - -
20/05:30am 20.4 S 3 6 1012.5 - 0.0 - - 10 - - - -
20/05:00am 19.6 SSW 2 5 1012.2 - 0.0 - - 10 - - - -
20/04:30am 20.1 W 2 4 1012.1 - 0.0 - - 10 - - - -
20/04:00am 19.6 NNE 1 4 1012.1 - 0.0 - - 10 - - - -
20/03:30am 19.8 SW 2 5 1012.1 - 0.0 - - 10 - - - -
20/03:00am 20.2 CALM 0 2 1011.6 - 0.0 - - 10 - - - -
20/02:30am 20.9 NNE 3 6 1011.4 - 0.0 - - 10 - - - -
20/02:00am 20.7 SSW 4 6 1011.5 - 0.0 - - 10 - - - -
20/01:30am 21.9 SW 4 6 1011.7 - 0.0 - - 10 - - - -
20/01:00am 22.0 SSW 5 7 1011.6 - 0.0 - - 10 - - - -
20/12:30am 22.1 SW 3 7 1011.8 - 0.0 - - 10 - - - -
20/12:00am 22.0 SW 1 4 1012.1 - 0.0 - - 10 - - - -
 
Date/Time
WST
Temp
°C
Wind Pressure Rain since
9am
mm
Weather Cloud Vis
km
Sea
Height
m
Swell
Dir  Spd
kts
Gust
kts
hPa Trend Height
m
Period
s
Dir
19/11:30pm 21.9 SW 2 5 1012.3 - 0.0 - - 10 - - - -
19/11:00pm 22.2 CALM 0 0 1012.7 - 0.0 - - 10 - - - -
19/10:30pm 21.7 CALM 0 0 1013.0 - 0.0 - - 10 - - - -
19/10:00pm 22.1 CALM 0 0 1013.1 - 0.0 - - 10 - - - -
19/09:30pm 21.8 CALM 0 0 1013.1 - 0.0 - - 10 - - - -
19/09:00pm 21.9 CALM 0 0 1013.0 - 0.0 - - 10 - - - -
19/08:30pm 22.8 CALM 0 0 1012.9 - 0.0 - - 10 - - - -
19/08:00pm 23.0 CALM 0 0 1012.9 - 0.0 - - 10 - - - -
19/07:30pm 23.7 CALM 0 3 1012.7 - 0.0 - - 10 - - - -
19/07:00pm 24.7 CALM 0 2 1012.4 - 0.0 - - 10 - - - -
19/06:30pm 26.5 ENE 1 4 1011.9 - 0.0 - - 10 - - - -
19/06:00pm 27.3 NE 5 10 1011.2 - 0.0 - - 10 - - - -
19/05:30pm 28.2 NNE 7 11 1010.8 - 0.0 - - 10 - - - -
19/05:00pm 29.5 NNE 7 11 1010.5 - 0.0 - - 10 - - - -
19/04:30pm 30.5 NNE 8 13 1010.2 - 0.0 - - 10 - - - -
19/04:00pm 29.8 N 9 14 1010.0 - 0.0 - - 10 - - - -
19/03:30pm 30.6 N 10 14 1010.0 - 0.0 - - 10 - - - -
19/03:00pm 31.3 N 10 16 1010.0 - 0.0 - - 10 - - - -
19/02:30pm 31.7 N 10 15 1010.3 - 0.0 - - 10 - - - -
19/02:00pm 32.0 NNE 10 15 1010.4 - 0.0 - - 10 - - - -
19/01:30pm 32.8 N 13 20 1010.6 - 0.0 - - 10 - - - -
19/01:00pm 36.2 E 9 16 1010.8 - 0.0 - - 10 - - - -
19/12:30pm 35.8 E 9 14 1011.1 - 0.0 - - 10 - - - -

Other Formats:

Comma delimited format used in spreadsheet applications
http://www.bom.gov.au/fwo/IDW60701/IDW60701.95101.axf

JavaScript Object Notation format (JSON) in row-major order
http://www.bom.gov.au/fwo/IDW60701/IDW60701.95101.json